sensor_id;sensor_type;location;lat;lon;timestamp;P1;durP1;ratioP1;P2;durP2;ratioP2
59824;SDS011;45703;50.898;6.054;2023-08-06T00:01:52;3.10;;;0.85;;
59824;SDS011;45703;50.898;6.054;2023-08-06T00:04:20;5.32;;;1.20;;
59824;SDS011;45703;50.898;6.054;2023-08-06T00:06:45;5.60;;;1.33;;
59824;SDS011;45703;50.898;6.054;2023-08-06T00:09:11;4.68;;;1.20;;
59824;SDS011;45703;50.898;6.054;2023-08-06T00:11:36;4.28;;;1.10;;
59824;SDS011;45703;50.898;6.054;2023-08-06T00:14:14;3.83;;;0.90;;
59824;SDS011;45703;50.898;6.054;2023-08-06T00:16:45;3.80;;;1.03;;
59824;SDS011;45703;50.898;6.054;2023-08-06T00:19:10;4.13;;;1.00;;
59824;SDS011;45703;50.898;6.054;2023-08-06T00:21:38;4.10;;;1.10;;
59824;SDS011;45703;50.898;6.054;2023-08-06T00:24:04;4.65;;;1.30;;
59824;SDS011;45703;50.898;6.054;2023-08-06T00:26:32;4.72;;;1.10;;
59824;SDS011;45703;50.898;6.054;2023-08-06T00:28:57;4.60;;;1.00;;
59824;SDS011;45703;50.898;6.054;2023-08-06T00:31:23;3.83;;;1.10;;
59824;SDS011;45703;50.898;6.054;2023-08-06T00:33:58;3.17;;;0.93;;
59824;SDS011;45703;50.898;6.054;2023-08-06T00:36:23;3.67;;;0.93;;
59824;SDS011;45703;50.898;6.054;2023-08-06T00:38:49;3.92;;;1.17;;
59824;SDS011;45703;50.898;6.054;2023-08-06T00:41:16;4.07;;;0.98;;
59824;SDS011;45703;50.898;6.054;2023-08-06T00:43:47;3.60;;;0.80;;
59824;SDS011;45703;50.898;6.054;2023-08-06T00:46:12;5.05;;;1.20;;
59824;SDS011;45703;50.898;6.054;2023-08-06T00:48:41;3.63;;;0.90;;
59824;SDS011;45703;50.898;6.054;2023-08-06T00:51:12;4.82;;;1.20;;
59824;SDS011;45703;50.898;6.054;2023-08-06T00:53:53;3.40;;;0.80;;
59824;SDS011;45703;50.898;6.054;2023-08-06T00:56:22;3.55;;;0.90;;
59824;SDS011;45703;50.898;6.054;2023-08-06T00:58:49;3.55;;;0.88;;
59824;SDS011;45703;50.898;6.054;2023-08-06T01:01:17;4.25;;;1.08;;
59824;SDS011;45703;50.898;6.054;2023-08-06T01:03:45;4.60;;;1.10;;
59824;SDS011;45703;50.898;6.054;2023-08-06T01:06:11;3.75;;;0.90;;
59824;SDS011;45703;50.898;6.054;2023-08-06T01:08:54;2.60;;;0.70;;
59824;SDS011;45703;50.898;6.054;2023-08-06T01:11:26;3.83;;;1.05;;
59824;SDS011;45703;50.898;6.054;2023-08-06T01:14:13;3.65;;;0.80;;
59824;SDS011;45703;50.898;6.054;2023-08-06T01:16:53;4.28;;;1.20;;
59824;SDS011;45703;50.898;6.054;2023-08-06T01:19:20;4.20;;;1.10;;
59824;SDS011;45703;50.898;6.054;2023-08-06T01:21:46;3.45;;;0.98;;
59824;SDS011;45703;50.898;6.054;2023-08-06T01:24:14;3.20;;;0.77;;
59824;SDS011;45703;50.898;6.054;2023-08-06T01:29:31;4.47;;;1.00;;
59824;SDS011;45703;50.898;6.054;2023-08-06T01:32:04;3.75;;;1.10;;
59824;SDS011;45703;50.898;6.054;2023-08-06T01:34:31;6.13;;;1.10;;
59824;SDS011;45703;50.898;6.054;2023-08-06T01:36:59;3.65;;;1.00;;
59824;SDS011;45703;50.898;6.054;2023-08-06T01:39:26;4.57;;;1.13;;
59824;SDS011;45703;50.898;6.054;2023-08-06T01:41:53;4.35;;;1.10;;
59824;SDS011;45703;50.898;6.054;2023-08-06T01:44:19;4.10;;;1.20;;
59824;SDS011;45703;50.898;6.054;2023-08-06T01:46:44;4.70;;;1.20;;
59824;SDS011;45703;50.898;6.054;2023-08-06T01:49:14;5.45;;;1.05;;
59824;SDS011;45703;50.898;6.054;2023-08-06T01:51:47;3.88;;;1.10;;
59824;SDS011;45703;50.898;6.054;2023-08-06T01:54:31;3.83;;;1.00;;
59824;SDS011;45703;50.898;6.054;2023-08-06T01:56:58;4.47;;;1.17;;
59824;SDS011;45703;50.898;6.054;2023-08-06T01:59:24;3.42;;;1.00;;
59824;SDS011;45703;50.898;6.054;2023-08-06T02:01:49;4.32;;;1.02;;
59824;SDS011;45703;50.898;6.054;2023-08-06T02:04:15;3.78;;;1.00;;
59824;SDS011;45703;50.898;6.054;2023-08-06T02:06:45;7.03;;;1.23;;
59824;SDS011;45703;50.898;6.054;2023-08-06T02:09:10;4.35;;;1.20;;
59824;SDS011;45703;50.898;6.054;2023-08-06T02:11:38;4.28;;;0.98;;
59824;SDS011;45703;50.898;6.054;2023-08-06T02:14:04;3.67;;;0.90;;
59824;SDS011;45703;50.898;6.054;2023-08-06T02:16:42;4.38;;;1.00;;
59824;SDS011;45703;50.898;6.054;2023-08-06T02:19:09;3.35;;;0.82;;
59824;SDS011;45703;50.898;6.054;2023-08-06T02:21:39;4.03;;;0.90;;
59824;SDS011;45703;50.898;6.054;2023-08-06T02:24:07;3.60;;;0.80;;
59824;SDS011;45703;50.898;6.054;2023-08-06T02:26:35;4.47;;;0.90;;
59824;SDS011;45703;50.898;6.054;2023-08-06T02:29:00;4.00;;;0.88;;
59824;SDS011;45703;50.898;6.054;2023-08-06T02:31:31;3.88;;;0.90;;
59824;SDS011;45703;50.898;6.054;2023-08-06T02:33:58;3.83;;;0.95;;
59824;SDS011;45703;50.898;6.054;2023-08-06T02:36:26;2.05;;;0.70;;
59824;SDS011;45703;50.898;6.054;2023-08-06T02:38:54;3.58;;;0.80;;
59824;SDS011;45703;50.898;6.054;2023-08-06T02:41:22;2.72;;;0.60;;
59824;SDS011;45703;50.898;6.054;2023-08-06T02:43:50;3.92;;;0.80;;
59824;SDS011;45703;50.898;6.054;2023-08-06T02:46:15;3.58;;;0.82;;
59824;SDS011;45703;50.898;6.054;2023-08-06T02:48:41;3.45;;;0.70;;
59824;SDS011;45703;50.898;6.054;2023-08-06T02:51:09;2.92;;;0.80;;
59824;SDS011;45703;50.898;6.054;2023-08-06T02:53:34;2.97;;;0.80;;
59824;SDS011;45703;50.898;6.054;2023-08-06T02:56:03;4.43;;;0.90;;
59824;SDS011;45703;50.898;6.054;2023-08-06T02:58:31;3.25;;;0.80;;
59824;SDS011;45703;50.898;6.054;2023-08-06T03:01:08;3.50;;;0.73;;
59824;SDS011;45703;50.898;6.054;2023-08-06T03:03:33;2.97;;;0.85;;
59824;SDS011;45703;50.898;6.054;2023-08-06T03:05:59;2.33;;;0.60;;
59824;SDS011;45703;50.898;6.054;2023-08-06T03:08:25;4.65;;;0.90;;
59824;SDS011;45703;50.898;6.054;2023-08-06T03:10:53;2.15;;;0.60;;
59824;SDS011;45703;50.898;6.054;2023-08-06T03:13:19;4.28;;;0.90;;
59824;SDS011;45703;50.898;6.054;2023-08-06T03:16:00;2.90;;;0.70;;
59824;SDS011;45703;50.898;6.054;2023-08-06T03:18:25;2.42;;;0.70;;
59824;SDS011;45703;50.898;6.054;2023-08-06T03:20:53;3.42;;;0.70;;
59824;SDS011;45703;50.898;6.054;2023-08-06T03:23:22;2.92;;;0.85;;
59824;SDS011;45703;50.898;6.054;2023-08-06T03:25:47;5.13;;;0.77;;
59824;SDS011;45703;50.898;6.054;2023-08-06T03:28:15;3.13;;;0.70;;
59824;SDS011;45703;50.898;6.054;2023-08-06T03:30:40;3.10;;;0.70;;
59824;SDS011;45703;50.898;6.054;2023-08-06T03:33:06;3.35;;;0.68;;
59824;SDS011;45703;50.898;6.054;2023-08-06T03:35:31;3.05;;;0.80;;
59824;SDS011;45703;50.898;6.054;2023-08-06T03:37:57;2.58;;;0.70;;
59824;SDS011;45703;50.898;6.054;2023-08-06T03:40:22;3.35;;;0.60;;
59824;SDS011;45703;50.898;6.054;2023-08-06T03:42:50;3.33;;;0.70;;
59824;SDS011;45703;50.898;6.054;2023-08-06T03:45:15;2.53;;;0.60;;
59824;SDS011;45703;50.898;6.054;2023-08-06T03:47:44;3.40;;;0.70;;
59824;SDS011;45703;50.898;6.054;2023-08-06T03:50:09;2.70;;;0.82;;
59824;SDS011;45703;50.898;6.054;2023-08-06T03:52:35;3.42;;;0.80;;
59824;SDS011;45703;50.898;6.054;2023-08-06T03:55:02;2.20;;;0.60;;
59824;SDS011;45703;50.898;6.054;2023-08-06T03:57:28;3.40;;;0.60;;
59824;SDS011;45703;50.898;6.054;2023-08-06T03:59:54;3.38;;;0.80;;
59824;SDS011;45703;50.898;6.054;2023-08-06T04:02:19;3.25;;;0.60;;
59824;SDS011;45703;50.898;6.054;2023-08-06T04:04:47;3.95;;;0.75;;
59824;SDS011;45703;50.898;6.054;2023-08-06T04:07:12;3.08;;;0.70;;
59824;SDS011;45703;50.898;6.054;2023-08-06T04:09:57;2.15;;;0.50;;
59824;SDS011;45703;50.898;6.054;2023-08-06T04:12:26;3.45;;;0.70;;
59824;SDS011;45703;50.898;6.054;2023-08-06T04:14:52;1.95;;;0.60;;
59824;SDS011;45703;50.898;6.054;2023-08-06T04:17:19;3.30;;;0.80;;
59824;SDS011;45703;50.898;6.054;2023-08-06T04:19:54;2.63;;;0.80;;
59824;SDS011;45703;50.898;6.054;2023-08-06T04:22:23;2.88;;;0.73;;
59824;SDS011;45703;50.898;6.054;2023-08-06T04:24:48;2.22;;;0.65;;
59824;SDS011;45703;50.898;6.054;2023-08-06T04:27:17;3.25;;;0.70;;
59824;SDS011;45703;50.898;6.054;2023-08-06T04:29:44;1.95;;;0.50;;
59824;SDS011;45703;50.898;6.054;2023-08-06T04:32:09;3.72;;;0.88;;
59824;SDS011;45703;50.898;6.054;2023-08-06T04:34:36;2.67;;;0.60;;
59824;SDS011;45703;50.898;6.054;2023-08-06T04:37:02;2.67;;;0.60;;
59824;SDS011;45703;50.898;6.054;2023-08-06T04:39:28;2.63;;;0.65;;
59824;SDS011;45703;50.898;6.054;2023-08-06T04:41:56;2.97;;;0.60;;
59824;SDS011;45703;50.898;6.054;2023-08-06T04:44:26;3.15;;;0.60;;
59824;SDS011;45703;50.898;6.054;2023-08-06T04:46:51;2.00;;;0.70;;
59824;SDS011;45703;50.898;6.054;2023-08-06T04:49:17;4.05;;;0.73;;
59824;SDS011;45703;50.898;6.054;2023-08-06T04:51:43;4.00;;;0.82;;
59824;SDS011;45703;50.898;6.054;2023-08-06T04:54:08;3.60;;;0.95;;
59824;SDS011;45703;50.898;6.054;2023-08-06T04:56:34;3.72;;;1.02;;
59824;SDS011;45703;50.898;6.054;2023-08-06T04:59:00;2.47;;;0.75;;
59824;SDS011;45703;50.898;6.054;2023-08-06T05:01:25;4.38;;;1.20;;
59824;SDS011;45703;50.898;6.054;2023-08-06T05:03:51;5.68;;;1.48;;
59824;SDS011;45703;50.898;6.054;2023-08-06T05:06:16;4.57;;;1.63;;
59824;SDS011;45703;50.898;6.054;2023-08-06T05:08:41;4.80;;;1.38;;
59824;SDS011;45703;50.898;6.054;2023-08-06T05:11:07;4.40;;;1.48;;
59824;SDS011;45703;50.898;6.054;2023-08-06T05:13:32;3.55;;;1.13;;
59824;SDS011;45703;50.898;6.054;2023-08-06T05:15:58;4.22;;;1.40;;
59824;SDS011;45703;50.898;6.054;2023-08-06T05:18:23;4.13;;;1.30;;
59824;SDS011;45703;50.898;6.054;2023-08-06T05:20:49;5.50;;;1.70;;
59824;SDS011;45703;50.898;6.054;2023-08-06T05:23:14;4.95;;;1.45;;
59824;SDS011;45703;50.898;6.054;2023-08-06T05:25:40;4.55;;;1.52;;
59824;SDS011;45703;50.898;6.054;2023-08-06T05:28:06;6.25;;;1.77;;
59824;SDS011;45703;50.898;6.054;2023-08-06T05:30:31;5.82;;;2.28;;
59824;SDS011;45703;50.898;6.054;2023-08-06T05:33:03;6.07;;;2.47;;
59824;SDS011;45703;50.898;6.054;2023-08-06T05:35:29;6.15;;;2.55;;
59824;SDS011;45703;50.898;6.054;2023-08-06T05:37:54;5.85;;;2.35;;
59824;SDS011;45703;50.898;6.054;2023-08-06T05:40:19;6.60;;;2.33;;
59824;SDS011;45703;50.898;6.054;2023-08-06T05:42:45;5.72;;;2.25;;
59824;SDS011;45703;50.898;6.054;2023-08-06T05:45:10;7.68;;;2.38;;
59824;SDS011;45703;50.898;6.054;2023-08-06T05:47:36;6.78;;;2.58;;
59824;SDS011;45703;50.898;6.054;2023-08-06T05:50:01;7.50;;;2.60;;
59824;SDS011;45703;50.898;6.054;2023-08-06T05:52:26;7.88;;;3.05;;
59824;SDS011;45703;50.898;6.054;2023-08-06T05:54:52;7.32;;;2.70;;
59824;SDS011;45703;50.898;6.054;2023-08-06T05:57:17;6.57;;;3.05;;
59824;SDS011;45703;50.898;6.054;2023-08-06T05:59:43;6.93;;;2.85;;
59824;SDS011;45703;50.898;6.054;2023-08-06T06:02:08;8.23;;;3.00;;
59824;SDS011;45703;50.898;6.054;2023-08-06T06:04:33;6.50;;;2.70;;
59824;SDS011;45703;50.898;6.054;2023-08-06T06:06:59;7.18;;;2.80;;
59824;SDS011;45703;50.898;6.054;2023-08-06T06:09:24;7.75;;;2.80;;
59824;SDS011;45703;50.898;6.054;2023-08-06T06:11:50;7.95;;;3.45;;
59824;SDS011;45703;50.898;6.054;2023-08-06T06:14:18;8.90;;;3.60;;
59824;SDS011;45703;50.898;6.054;2023-08-06T06:16:44;7.13;;;2.92;;
59824;SDS011;45703;50.898;6.054;2023-08-06T06:19:12;7.60;;;3.33;;
59824;SDS011;45703;50.898;6.054;2023-08-06T06:21:38;7.85;;;3.72;;
59824;SDS011;45703;50.898;6.054;2023-08-06T06:24:04;8.77;;;3.50;;
59824;SDS011;45703;50.898;6.054;2023-08-06T06:26:30;10.30;;;3.53;;
59824;SDS011;45703;50.898;6.054;2023-08-06T06:28:56;7.47;;;3.38;;
59824;SDS011;45703;50.898;6.054;2023-08-06T06:31:22;6.80;;;2.97;;
59824;SDS011;45703;50.898;6.054;2023-08-06T06:33:48;7.50;;;3.60;;
59824;SDS011;45703;50.898;6.054;2023-08-06T06:36:13;7.10;;;2.92;;
59824;SDS011;45703;50.898;6.054;2023-08-06T06:38:39;6.07;;;2.50;;
59824;SDS011;45703;50.898;6.054;2023-08-06T06:41:07;6.72;;;2.50;;
59824;SDS011;45703;50.898;6.054;2023-08-06T06:43:32;7.10;;;3.00;;
59824;SDS011;45703;50.898;6.054;2023-08-06T06:45:58;6.18;;;2.17;;
59824;SDS011;45703;50.898;6.054;2023-08-06T06:48:28;5.38;;;1.83;;
59824;SDS011;45703;50.898;6.054;2023-08-06T06:50:55;4.88;;;1.50;;
59824;SDS011;45703;50.898;6.054;2023-08-06T06:53:23;5.22;;;1.38;;
59824;SDS011;45703;50.898;6.054;2023-08-06T06:56:06;4.18;;;1.30;;
59824;SDS011;45703;50.898;6.054;2023-08-06T06:58:32;3.25;;;0.90;;
59824;SDS011;45703;50.898;6.054;2023-08-06T07:00:57;2.60;;;0.77;;
59824;SDS011;45703;50.898;6.054;2023-08-06T07:03:23;2.63;;;0.80;;
59824;SDS011;45703;50.898;6.054;2023-08-06T07:05:49;3.97;;;0.95;;
59824;SDS011;45703;50.898;6.054;2023-08-06T07:08:15;3.40;;;0.80;;
59824;SDS011;45703;50.898;6.054;2023-08-06T07:10:41;2.30;;;0.50;;
59824;SDS011;45703;50.898;6.054;2023-08-06T07:13:07;2.25;;;0.40;;
59824;SDS011;45703;50.898;6.054;2023-08-06T07:15:33;1.73;;;0.50;;
59824;SDS011;45703;50.898;6.054;2023-08-06T07:17:58;1.75;;;0.50;;
59824;SDS011;45703;50.898;6.054;2023-08-06T07:20:24;2.05;;;0.60;;
59824;SDS011;45703;50.898;6.054;2023-08-06T07:22:49;3.08;;;0.80;;
59824;SDS011;45703;50.898;6.054;2023-08-06T07:25:15;2.35;;;0.70;;
59824;SDS011;45703;50.898;6.054;2023-08-06T07:27:44;3.35;;;0.88;;
59824;SDS011;45703;50.898;6.054;2023-08-06T07:30:10;5.18;;;1.25;;
59824;SDS011;45703;50.898;6.054;2023-08-06T07:32:36;5.25;;;1.45;;
59824;SDS011;45703;50.898;6.054;2023-08-06T07:35:01;4.93;;;1.45;;
59824;SDS011;45703;50.898;6.054;2023-08-06T07:37:27;5.75;;;1.70;;
59824;SDS011;45703;50.898;6.054;2023-08-06T07:39:54;6.13;;;1.98;;
59824;SDS011;45703;50.898;6.054;2023-08-06T07:42:19;5.95;;;1.95;;
59824;SDS011;45703;50.898;6.054;2023-08-06T07:44:55;6.32;;;2.35;;
59824;SDS011;45703;50.898;6.054;2023-08-06T07:47:21;5.88;;;2.25;;
59824;SDS011;45703;50.898;6.054;2023-08-06T07:49:47;6.60;;;2.50;;
59824;SDS011;45703;50.898;6.054;2023-08-06T07:52:13;6.03;;;2.20;;
59824;SDS011;45703;50.898;6.054;2023-08-06T07:54:38;6.70;;;2.28;;
59824;SDS011;45703;50.898;6.054;2023-08-06T07:57:04;6.68;;;2.67;;
59824;SDS011;45703;50.898;6.054;2023-08-06T07:59:30;5.07;;;1.67;;
59824;SDS011;45703;50.898;6.054;2023-08-06T08:01:55;2.95;;;0.80;;
59824;SDS011;45703;50.898;6.054;2023-08-06T08:04:21;3.78;;;0.60;;
59824;SDS011;45703;50.898;6.054;2023-08-06T08:06:48;2.20;;;0.60;;
59824;SDS011;45703;50.898;6.054;2023-08-06T08:09:14;1.13;;;0.30;;
59824;SDS011;45703;50.898;6.054;2023-08-06T08:11:39;2.03;;;0.63;;
59824;SDS011;45703;50.898;6.054;2023-08-06T08:14:05;2.17;;;0.60;;
59824;SDS011;45703;50.898;6.054;2023-08-06T08:16:31;2.78;;;0.70;;
59824;SDS011;45703;50.898;6.054;2023-08-06T08:18:57;1.33;;;0.50;;
59824;SDS011;45703;50.898;6.054;2023-08-06T08:21:23;1.98;;;0.52;;
59824;SDS011;45703;50.898;6.054;2023-08-06T08:23:49;3.03;;;0.88;;
59824;SDS011;45703;50.898;6.054;2023-08-06T08:26:15;3.53;;;0.80;;
59824;SDS011;45703;50.898;6.054;2023-08-06T08:28:40;4.50;;;0.80;;
59824;SDS011;45703;50.898;6.054;2023-08-06T08:31:09;4.35;;;1.30;;
59824;SDS011;45703;50.898;6.054;2023-08-06T08:33:36;4.78;;;1.40;;
59824;SDS011;45703;50.898;6.054;2023-08-06T08:36:04;5.13;;;1.67;;
59824;SDS011;45703;50.898;6.054;2023-08-06T08:38:29;5.38;;;2.00;;
59824;SDS011;45703;50.898;6.054;2023-08-06T08:40:55;5.80;;;2.20;;
59824;SDS011;45703;50.898;6.054;2023-08-06T08:43:21;6.97;;;2.90;;
59824;SDS011;45703;50.898;6.054;2023-08-06T08:45:49;6.90;;;2.70;;
59824;SDS011;45703;50.898;6.054;2023-08-06T08:48:15;6.72;;;2.80;;
59824;SDS011;45703;50.898;6.054;2023-08-06T08:50:45;6.70;;;2.72;;
59824;SDS011;45703;50.898;6.054;2023-08-06T08:53:12;6.72;;;2.78;;
59824;SDS011;45703;50.898;6.054;2023-08-06T08:55:40;7.00;;;2.65;;
59824;SDS011;45703;50.898;6.054;2023-08-06T08:58:07;6.95;;;2.42;;
59824;SDS011;45703;50.898;6.054;2023-08-06T09:00:33;6.35;;;2.40;;
59824;SDS011;45703;50.898;6.054;2023-08-06T09:02:59;7.78;;;2.67;;
59824;SDS011;45703;50.898;6.054;2023-08-06T09:05:26;6.97;;;2.10;;
59824;SDS011;45703;50.898;6.054;2023-08-06T09:07:59;7.40;;;2.40;;
59824;SDS011;45703;50.898;6.054;2023-08-06T09:10:27;7.40;;;2.37;;
59824;SDS011;45703;50.898;6.054;2023-08-06T09:12:53;6.90;;;2.20;;
59824;SDS011;45703;50.898;6.054;2023-08-06T09:15:20;7.07;;;2.22;;
59824;SDS011;45703;50.898;6.054;2023-08-06T09:17:49;8.18;;;2.10;;
59824;SDS011;45703;50.898;6.054;2023-08-06T09:20:14;6.75;;;2.10;;
59824;SDS011;45703;50.898;6.054;2023-08-06T09:22:40;5.82;;;2.00;;
59824;SDS011;45703;50.898;6.054;2023-08-06T09:25:06;7.60;;;2.40;;
59824;SDS011;45703;50.898;6.054;2023-08-06T09:27:36;6.40;;;2.20;;
59824;SDS011;45703;50.898;6.054;2023-08-06T09:30:05;6.50;;;2.15;;
59824;SDS011;45703;50.898;6.054;2023-08-06T09:32:48;7.20;;;2.10;;
59824;SDS011;45703;50.898;6.054;2023-08-06T09:35:19;6.35;;;1.67;;
59824;SDS011;45703;50.898;6.054;2023-08-06T09:37:45;6.57;;;1.50;;
59824;SDS011;45703;50.898;6.054;2023-08-06T09:40:26;6.82;;;1.60;;
59824;SDS011;45703;50.898;6.054;2023-08-06T09:42:53;7.32;;;1.98;;
59824;SDS011;45703;50.898;6.054;2023-08-06T09:45:19;6.80;;;1.35;;
59824;SDS011;45703;50.898;6.054;2023-08-06T09:47:44;6.28;;;1.50;;
59824;SDS011;45703;50.898;6.054;2023-08-06T09:50:17;6.78;;;1.27;;
59824;SDS011;45703;50.898;6.054;2023-08-06T09:52:48;5.82;;;1.50;;
59824;SDS011;45703;50.898;6.054;2023-08-06T09:55:16;7.22;;;1.35;;
59824;SDS011;45703;50.898;6.054;2023-08-06T09:57:43;6.28;;;1.27;;
59824;SDS011;45703;50.898;6.054;2023-08-06T10:00:09;8.00;;;1.70;;
59824;SDS011;45703;50.898;6.054;2023-08-06T10:02:37;6.18;;;1.38;;
59824;SDS011;45703;50.898;6.054;2023-08-06T10:05:03;6.78;;;1.60;;
59824;SDS011;45703;50.898;6.054;2023-08-06T10:07:29;7.47;;;1.40;;
59824;SDS011;45703;50.898;6.054;2023-08-06T10:09:55;7.43;;;1.85;;
59824;SDS011;45703;50.898;6.054;2023-08-06T10:12:21;6.10;;;1.30;;
59824;SDS011;45703;50.898;6.054;2023-08-06T10:14:50;8.38;;;1.45;;
59824;SDS011;45703;50.898;6.054;2023-08-06T10:17:18;6.35;;;1.50;;
59824;SDS011;45703;50.898;6.054;2023-08-06T10:19:46;5.97;;;1.52;;
59824;SDS011;45703;50.898;6.054;2023-08-06T10:22:16;6.72;;;1.65;;
59824;SDS011;45703;50.898;6.054;2023-08-06T10:24:56;5.28;;;1.60;;
59824;SDS011;45703;50.898;6.054;2023-08-06T10:32:52;7.23;;;1.90;;
59824;SDS011;45703;50.898;6.054;2023-08-06T10:35:28;6.57;;;2.00;;
59824;SDS011;45703;50.898;6.054;2023-08-06T10:40:35;8.98;;;2.17;;
59824;SDS011;45703;50.898;6.054;2023-08-06T10:43:03;6.15;;;1.77;;
59824;SDS011;45703;50.898;6.054;2023-08-06T10:45:29;6.07;;;1.65;;
59824;SDS011;45703;50.898;6.054;2023-08-06T10:47:55;8.10;;;2.20;;
59824;SDS011;45703;50.898;6.054;2023-08-06T10:50:22;9.40;;;2.33;;
59824;SDS011;45703;50.898;6.054;2023-08-06T10:52:48;6.25;;;2.20;;
59824;SDS011;45703;50.898;6.054;2023-08-06T10:55:22;6.22;;;1.90;;
59824;SDS011;45703;50.898;6.054;2023-08-06T10:57:54;6.50;;;2.10;;
59824;SDS011;45703;50.898;6.054;2023-08-06T11:00:20;7.25;;;2.00;;
59824;SDS011;45703;50.898;6.054;2023-08-06T11:02:48;7.80;;;2.17;;
59824;SDS011;45703;50.898;6.054;2023-08-06T11:05:14;6.00;;;1.85;;
59824;SDS011;45703;50.898;6.054;2023-08-06T11:07:43;7.05;;;2.05;;
59824;SDS011;45703;50.898;6.054;2023-08-06T11:10:09;5.68;;;1.55;;
59824;SDS011;45703;50.898;6.054;2023-08-06T11:12:37;7.90;;;1.95;;
59824;SDS011;45703;50.898;6.054;2023-08-06T11:15:03;7.35;;;1.63;;
59824;SDS011;45703;50.898;6.054;2023-08-06T11:17:29;6.78;;;1.60;;
59824;SDS011;45703;50.898;6.054;2023-08-06T11:19:56;5.75;;;1.40;;
59824;SDS011;45703;50.898;6.054;2023-08-06T11:22:24;6.32;;;1.50;;
59824;SDS011;45703;50.898;6.054;2023-08-06T11:24:50;6.03;;;1.33;;
59824;SDS011;45703;50.898;6.054;2023-08-06T11:27:16;5.43;;;1.30;;
59824;SDS011;45703;50.898;6.054;2023-08-06T11:29:42;7.25;;;1.40;;
59824;SDS011;45703;50.898;6.054;2023-08-06T11:32:11;4.57;;;1.00;;
59824;SDS011;45703;50.898;6.054;2023-08-06T11:34:37;3.13;;;1.00;;
59824;SDS011;45703;50.898;6.054;2023-08-06T11:37:04;5.95;;;1.23;;
59824;SDS011;45703;50.898;6.054;2023-08-06T11:39:34;3.15;;;0.70;;
59824;SDS011;45703;50.898;6.054;2023-08-06T11:42:00;3.95;;;0.95;;
59824;SDS011;45703;50.898;6.054;2023-08-06T11:44:29;2.85;;;0.80;;
59824;SDS011;45703;50.898;6.054;2023-08-06T11:46:57;4.10;;;1.13;;
59824;SDS011;45703;50.898;6.054;2023-08-06T11:52:13;3.05;;;0.82;;
59824;SDS011;45703;50.898;6.054;2023-08-06T11:54:41;3.20;;;0.80;;
59824;SDS011;45703;50.898;6.054;2023-08-06T11:57:07;2.00;;;0.80;;
59824;SDS011;45703;50.898;6.054;2023-08-06T11:59:33;3.03;;;0.80;;
59824;SDS011;45703;50.898;6.054;2023-08-06T12:02:02;3.25;;;0.90;;
59824;SDS011;45703;50.898;6.054;2023-08-06T12:04:30;2.88;;;0.80;;
59824;SDS011;45703;50.898;6.054;2023-08-06T12:07:04;2.90;;;0.90;;
59824;SDS011;45703;50.898;6.054;2023-08-06T12:09:29;5.25;;;1.00;;
59824;SDS011;45703;50.898;6.054;2023-08-06T12:11:55;3.60;;;0.90;;
59824;SDS011;45703;50.898;6.054;2023-08-06T12:14:20;2.63;;;0.75;;
59824;SDS011;45703;50.898;6.054;2023-08-06T12:16:46;3.55;;;0.95;;
59824;SDS011;45703;50.898;6.054;2023-08-06T12:19:11;4.10;;;0.90;;
59824;SDS011;45703;50.898;6.054;2023-08-06T12:21:36;4.20;;;0.90;;
59824;SDS011;45703;50.898;6.054;2023-08-06T12:24:02;4.40;;;1.05;;
59824;SDS011;45703;50.898;6.054;2023-08-06T12:26:27;4.68;;;1.30;;
59824;SDS011;45703;50.898;6.054;2023-08-06T12:28:53;5.60;;;1.20;;
59824;SDS011;45703;50.898;6.054;2023-08-06T12:31:20;5.38;;;1.17;;
59824;SDS011;45703;50.898;6.054;2023-08-06T12:33:45;6.10;;;1.70;;
59824;SDS011;45703;50.898;6.054;2023-08-06T12:36:11;6.97;;;1.63;;
59824;SDS011;45703;50.898;6.054;2023-08-06T12:38:36;5.60;;;1.63;;
59824;SDS011;45703;50.898;6.054;2023-08-06T12:41:01;6.30;;;1.85;;
59824;SDS011;45703;50.898;6.054;2023-08-06T12:43:27;5.97;;;1.60;;
59824;SDS011;45703;50.898;6.054;2023-08-06T12:45:52;8.63;;;1.75;;
59824;SDS011;45703;50.898;6.054;2023-08-06T12:48:18;4.93;;;1.40;;
59824;SDS011;45703;50.898;6.054;2023-08-06T12:50:44;4.70;;;1.30;;
59824;SDS011;45703;50.898;6.054;2023-08-06T12:53:09;8.45;;;1.50;;
59824;SDS011;45703;50.898;6.054;2023-08-06T12:55:35;5.13;;;1.42;;
59824;SDS011;45703;50.898;6.054;2023-08-06T12:58:00;4.80;;;1.48;;
59824;SDS011;45703;50.898;6.054;2023-08-06T13:00:25;5.38;;;1.40;;
59824;SDS011;45703;50.898;6.054;2023-08-06T13:02:51;4.80;;;1.30;;
59824;SDS011;45703;50.898;6.054;2023-08-06T13:05:16;5.63;;;1.40;;
59824;SDS011;45703;50.898;6.054;2023-08-06T13:07:42;7.65;;;1.48;;
59824;SDS011;45703;50.898;6.054;2023-08-06T13:10:07;4.32;;;1.13;;
59824;SDS011;45703;50.898;6.054;2023-08-06T13:12:32;3.92;;;1.05;;
59824;SDS011;45703;50.898;6.054;2023-08-06T13:14:58;4.50;;;1.10;;
59824;SDS011;45703;50.898;6.054;2023-08-06T13:17:24;6.22;;;1.75;;
59824;SDS011;45703;50.898;6.054;2023-08-06T13:19:49;6.80;;;1.63;;
59824;SDS011;45703;50.898;6.054;2023-08-06T13:22:15;6.13;;;1.38;;
59824;SDS011;45703;50.898;6.054;2023-08-06T13:24:40;4.13;;;1.20;;
59824;SDS011;45703;50.898;6.054;2023-08-06T13:27:06;7.47;;;1.50;;
59824;SDS011;45703;50.898;6.054;2023-08-06T13:29:31;5.40;;;1.48;;
59824;SDS011;45703;50.898;6.054;2023-08-06T13:31:57;6.90;;;1.17;;
59824;SDS011;45703;50.898;6.054;2023-08-06T13:34:22;4.53;;;1.35;;
59824;SDS011;45703;50.898;6.054;2023-08-06T13:36:48;3.47;;;1.05;;
59824;SDS011;45703;50.898;6.054;2023-08-06T13:39:13;5.63;;;1.10;;
59824;SDS011;45703;50.898;6.054;2023-08-06T13:41:42;4.03;;;1.20;;
59824;SDS011;45703;50.898;6.054;2023-08-06T13:44:07;3.55;;;1.08;;
59824;SDS011;45703;50.898;6.054;2023-08-06T13:46:33;2.63;;;0.90;;
59824;SDS011;45703;50.898;6.054;2023-08-06T13:48:58;3.92;;;0.98;;
59824;SDS011;45703;50.898;6.054;2023-08-06T13:51:23;3.70;;;1.00;;
59824;SDS011;45703;50.898;6.054;2023-08-06T13:53:49;3.20;;;0.93;;
59824;SDS011;45703;50.898;6.054;2023-08-06T13:56:14;4.10;;;1.00;;
59824;SDS011;45703;50.898;6.054;2023-08-06T13:58:42;3.92;;;0.90;;
59824;SDS011;45703;50.898;6.054;2023-08-06T14:01:09;4.05;;;0.82;;
59824;SDS011;45703;50.898;6.054;2023-08-06T14:03:36;2.85;;;0.82;;
59824;SDS011;45703;50.898;6.054;2023-08-06T14:06:01;3.63;;;0.88;;
59824;SDS011;45703;50.898;6.054;2023-08-06T14:08:27;4.13;;;1.25;;
59824;SDS011;45703;50.898;6.054;2023-08-06T14:10:52;2.92;;;0.80;;
59824;SDS011;45703;50.898;6.054;2023-08-06T14:13:18;4.53;;;0.80;;
59824;SDS011;45703;50.898;6.054;2023-08-06T14:15:44;3.70;;;0.88;;
59824;SDS011;45703;50.898;6.054;2023-08-06T14:18:12;2.58;;;0.70;;
59824;SDS011;45703;50.898;6.054;2023-08-06T14:20:41;3.28;;;0.80;;
59824;SDS011;45703;50.898;6.054;2023-08-06T14:23:08;3.72;;;0.80;;
59824;SDS011;45703;50.898;6.054;2023-08-06T14:25:33;4.03;;;0.95;;
59824;SDS011;45703;50.898;6.054;2023-08-06T14:27:59;4.72;;;1.00;;
59824;SDS011;45703;50.898;6.054;2023-08-06T14:30:24;3.95;;;1.00;;
59824;SDS011;45703;50.898;6.054;2023-08-06T14:32:49;3.90;;;0.90;;
59824;SDS011;45703;50.898;6.054;2023-08-06T14:35:15;3.92;;;1.00;;
59824;SDS011;45703;50.898;6.054;2023-08-06T14:37:40;4.78;;;1.10;;
59824;SDS011;45703;50.898;6.054;2023-08-06T14:40:06;4.63;;;1.00;;
59824;SDS011;45703;50.898;6.054;2023-08-06T14:42:32;3.65;;;0.95;;
59824;SDS011;45703;50.898;6.054;2023-08-06T14:44:57;5.00;;;0.98;;
59824;SDS011;45703;50.898;6.054;2023-08-06T14:47:23;4.15;;;1.10;;
59824;SDS011;45703;50.898;6.054;2023-08-06T14:49:48;3.53;;;0.90;;
59824;SDS011;45703;50.898;6.054;2023-08-06T14:52:14;4.18;;;1.20;;
59824;SDS011;45703;50.898;6.054;2023-08-06T14:54:40;3.42;;;0.90;;
59824;SDS011;45703;50.898;6.054;2023-08-06T14:57:05;5.22;;;1.10;;
59824;SDS011;45703;50.898;6.054;2023-08-06T14:59:32;3.30;;;0.90;;
59824;SDS011;45703;50.898;6.054;2023-08-06T15:01:57;5.70;;;1.15;;